Time;durP1;ratioP1;P1;durP2;ratioP2;P2;SDS_P1;SDS_P2;PMS_P1;PMS_P2;Temp;Humidity;BMP_temperature;BMP_pressure;BME280_temperature;BME280_humidity;BME280_pressure;Samples;Min_cycle;Max_cycle;Signal;HPM_P1;HPM_P2
2021/10/27 00:01:44;;;;;;;12.10;7.92;;;;;;;3.37;69.38;100484.34;1745639;81;21529;-60
2021/10/27 00:04:11;;;;;;;13.95;9.73;;;;;;;3.53;69.26;100482.62;1730001;82;22098;-59
2021/10/27 00:06:38;;;;;;;17.62;9.08;;;;;;;3.67;68.68;100478.27;1729854;82;20993;-59
2021/10/27 00:09:05;;;;;;;13.03;9.65;;;;;;;3.47;69.01;100481.75;1722540;80;20986;-63
2021/10/27 00:11:32;;;;;;;14.07;9.80;;;;;;;3.38;69.45;100479.16;1731116;82;20984;-59
2021/10/27 00:13:59;;;;;;;21.93;9.53;;;;;;;3.47;69.65;100477.00;1735070;82;21419;-59
2021/10/27 00:16:30;;;;;;;15.03;9.70;;;;;;;3.35;70.22;100477.84;1724793;82;21828;-59
2021/10/27 00:18:56;;;;;;;16.50;9.83;;;;;;;3.49;69.99;100477.86;1729551;82;21512;-59
2021/10/27 00:21:23;;;;;;;22.25;9.33;;;;;;;3.39;70.02;100473.10;1734706;82;21519;-58
2021/10/27 00:23:49;;;;;;;13.22;9.18;;;;;;;3.34;70.14;100472.23;1729291;80;21493;-58
2021/10/27 00:26:16;;;;;;;17.27;9.65;;;;;;;3.27;70.33;100471.34;1712095;82;21467;-58
2021/10/27 00:28:43;;;;;;;13.43;9.60;;;;;;;3.16;70.59;100479.57;1727732;81;21777;-58
2021/10/27 00:31:09;;;;;;;13.80;9.10;;;;;;;3.24;70.82;100477.86;1729879;80;21510;-58
2021/10/27 00:33:37;;;;;;;14.03;9.28;;;;;;;3.23;71.35;100479.16;1724536;82;21412;-58
2021/10/27 00:36:05;;;;;;;14.60;9.20;;;;;;;3.29;71.03;100468.31;1733694;82;21413;-58
2021/10/27 00:38:32;;;;;;;13.65;9.08;;;;;;;3.29;70.92;100470.05;1728648;81;21522;-58
2021/10/27 00:40:58;;;;;;;16.57;9.75;;;;;;;3.26;71.17;100474.83;1729264;82;21848;-58
2021/10/27 00:43:25;;;;;;;12.15;8.55;;;;;;;3.18;71.46;100471.78;1732655;82;21534;-58
2021/10/27 00:45:51;;;;;;;16.05;9.48;;;;;;;3.14;71.99;100472.65;1729276;81;21649;-59
2021/10/27 00:48:18;;;;;;;14.30;9.30;;;;;;;3.29;71.61;100469.61;1728595;82;21451;-58
2021/10/27 00:50:44;;;;;;;12.85;9.00;;;;;;;3.21;71.63;100471.80;1730591;80;21541;-58
2021/10/27 00:53:11;;;;;;;14.47;9.83;;;;;;;3.15;71.88;100470.06;1731597;80;21987;-60
2021/10/27 00:55:38;;;;;;;15.38;9.00;;;;;;;3.12;72.08;100469.60;1730149;82;21390;-59
2021/10/27 00:58:06;;;;;;;18.70;9.68;;;;;;;3.03;72.04;100465.73;1689610;82;21000;-59
2021/10/27 01:00:35;;;;;;;13.45;8.75;;;;;;;3.05;72.42;100472.20;1728281;80;21535;-58
2021/10/27 01:03:01;;;;;;;13.55;9.23;;;;;;;3.22;72.56;100464.41;1728840;81;21429;-62
2021/10/27 01:05:29;;;;;;;12.00;9.13;;;;;;;3.25;72.24;100471.78;1736610;80;22013;-59
2021/10/27 01:07:56;;;;;;;12.45;8.50;;;;;;;3.24;72.09;100469.17;1735101;81;21656;-59
2021/10/27 01:10:24;;;;;;;11.35;8.65;;;;;;;3.07;72.49;100467.45;1751155;81;25793;-59
2021/10/27 01:12:51;;;;;;;14.23;9.15;;;;;;;3.08;72.66;100461.81;1741768;81;21527;-58
2021/10/27 01:15:18;;;;;;;13.32;8.65;;;;;;;3.06;72.91;100456.61;1741610;81;21575;-59
2021/10/27 01:17:45;;;;;;;11.80;8.43;;;;;;;3.08;73.19;100454.02;1743977;80;21545;-59
2021/10/27 01:20:12;;;;;;;14.33;8.38;;;;;;;3.09;72.86;100454.03;1736023;81;21510;-59
2021/10/27 01:22:39;;;;;;;15.90;9.13;;;;;;;3.04;72.84;100453.15;1729473;81;21497;-59
2021/10/27 01:25:08;;;;;;;;;;;;;;;2.98;72.79;100453.16;1757644;81;20952;-59
2021/10/27 01:27:43;;;;;;;12.98;8.63;;;;;;;2.88;73.19;100451.39;1735326;81;20511;-58
2021/10/27 01:30:15;;;;;;;13.10;8.15;;;;;;;2.85;73.44;100450.97;1735429;80;21976;-58
2021/10/27 01:32:42;;;;;;;13.60;9.13;;;;;;;2.87;73.73;100450.53;1734513;81;21641;-59
2021/10/27 01:35:09;;;;;;;16.90;8.68;;;;;;;3.01;73.45;100450.98;1732516;81;21479;-58
2021/10/27 01:37:38;;;;;;;14.47;8.78;;;;;;;2.91;73.65;100446.21;1737674;80;21530;-58
2021/10/27 01:40:09;;;;;;;16.82;10.72;;;;;;;2.88;73.69;100448.79;1732941;81;21521;-58
2021/10/27 01:42:36;;;;;;;13.62;9.23;;;;;;;2.77;73.81;100441.41;1739148;81;21757;-58
2021/10/27 01:45:04;;;;;;;12.25;8.35;;;;;;;2.81;74.33;100440.58;1746171;81;21520;-58
2021/10/27 01:47:32;;;;;;;13.83;8.88;;;;;;;2.87;74.48;100436.25;1742066;80;21056;-58
2021/10/27 01:50:01;;;;;;;11.73;8.90;;;;;;;2.86;74.30;100435.83;1739199;80;21956;-58
2021/10/27 01:52:27;;;;;;;14.73;9.50;;;;;;;2.76;74.51;100434.06;1743079;80;21569;-58
2021/10/27 01:54:54;;;;;;;14.75;9.25;;;;;;;2.77;74.78;100433.63;1735135;81;22001;-58
2021/10/27 01:57:20;;;;;;;14.68;9.70;;;;;;;2.73;75.04;100434.94;1739135;81;21515;-58
2021/10/27 01:59:47;;;;;;;13.50;8.58;;;;;;;2.71;75.23;100437.08;1732843;81;21550;-58
2021/10/27 02:02:13;;;;;;;12.53;9.15;;;;;;;2.82;75.09;100433.20;1745779;81;21434;-58
2021/10/27 02:04:40;;;;;;;13.45;8.83;;;;;;;2.79;74.85;100430.19;1732402;81;21534;-59
2021/10/27 02:07:07;;;;;;;13.58;8.60;;;;;;;2.76;74.94;100429.31;1743792;81;21807;-56
2021/10/27 02:09:37;;;;;;;15.58;8.20;;;;;;;2.70;75.00;100429.73;1730467;81;21542;-58
2021/10/27 02:12:06;;;;;;;12.37;8.98;;;;;;;2.62;75.14;100435.75;1731839;81;21545;-57
2021/10/27 02:14:33;;;;;;;17.85;10.15;;;;;;;2.70;75.32;100434.92;1735335;81;21626;-57
2021/10/27 02:17:00;;;;;;;13.93;8.50;;;;;;;2.79;74.94;100434.08;1735046;80;21538;-57
2021/10/27 02:19:26;;;;;;;14.87;8.78;;;;;;;2.71;75.10;100432.77;1727075;82;22033;-57
2021/10/27 02:21:53;;;;;;;12.70;8.10;;;;;;;2.66;75.26;100430.59;1732409;81;21590;-57
2021/10/27 02:24:20;;;;;;;13.60;8.78;;;;;;;2.59;75.28;100424.94;1738148;81;21581;-57
2021/10/27 02:26:47;;;;;;;15.23;8.83;;;;;;;2.58;75.73;100426.23;1729828;81;20997;-57
2021/10/27 02:29:13;;;;;;;15.72;8.00;;;;;;;2.65;75.67;100422.34;1735110;81;20937;-57
2021/10/27 02:31:41;;;;;;;10.98;8.53;;;;;;;2.60;75.62;100422.80;1734222;81;21477;-57
2021/10/27 02:34:07;;;;;;;14.78;8.88;;;;;;;2.57;75.73;100421.48;1741145;81;21534;-57
2021/10/27 02:36:34;;;;;;;18.02;8.95;;;;;;;2.52;75.87;100425.38;1718104;81;21582;-56
2021/10/27 02:39:01;;;;;;;12.18;8.78;;;;;;;2.53;76.22;100425.80;1719545;81;20993;-57
2021/10/27 02:41:28;;;;;;;11.55;8.53;;;;;;;2.61;76.13;100417.16;1729565;81;21532;-57
2021/10/27 02:43:55;;;;;;;15.28;9.48;;;;;;;2.58;76.12;100415.84;1733471;81;21668;-58
2021/10/27 02:46:21;;;;;;;17.07;8.98;;;;;;;2.54;76.13;100420.16;1736987;80;21447;-57
2021/10/27 02:48:48;;;;;;;13.00;8.90;;;;;;;2.48;76.20;100424.05;1730086;81;21560;-58
2021/10/27 02:51:16;;;;;;;17.40;8.87;;;;;;;2.45;76.07;100423.63;1730696;81;21007;-57
2021/10/27 02:53:43;;;;;;;13.90;8.40;;;;;;;2.49;76.29;100424.50;1721173;81;21577;-57
2021/10/27 02:56:10;;;;;;;15.40;8.25;;;;;;;2.57;76.27;100419.33;1736158;81;21816;-57
2021/10/27 02:58:36;;;;;;;11.35;9.20;;;;;;;2.54;76.25;100412.38;1740075;81;21651;-57
2021/10/27 03:01:03;;;;;;;13.32;9.13;;;;;;;2.52;76.44;100416.29;1730911;81;21462;-57
2021/10/27 03:03:29;;;;;;;12.53;8.70;;;;;;;2.46;76.55;100411.50;1741085;81;21442;-57
2021/10/27 03:05:56;;;;;;;16.05;9.60;;;;;;;2.45;76.96;100413.23;1732669;81;21489;-57
2021/10/27 03:08:23;;;;;;;12.58;9.03;;;;;;;2.48;77.08;100405.88;1736289;80;21856;-57
2021/10/27 03:10:50;;;;;;;15.58;9.70;;;;;;;2.55;76.86;100404.18;1738501;81;21608;-58
2021/10/27 03:13:16;;;;;;;20.90;9.38;;;;;;;2.50;77.15;100405.00;1726876;81;21546;-59
2021/10/27 03:15:43;;;;;;;12.60;8.48;;;;;;;2.46;77.32;100405.01;1737083;81;21606;-59
2021/10/27 03:18:10;;;;;;;13.55;9.63;;;;;;;2.40;77.57;100401.11;1744829;80;21517;-57
2021/10/27 03:20:36;;;;;;;10.05;8.55;;;;;;;2.51;77.76;100391.62;1728934;81;22114;-57
2021/10/27 03:23:03;;;;;;;12.20;8.53;;;;;;;2.51;77.70;100396.81;1730141;81;21508;-57
2021/10/27 03:25:30;;;;;;;13.80;8.55;;;;;;;2.60;77.69;100401.13;1725476;80;21534;-57
2021/10/27 03:27:57;;;;;;;12.18;8.73;;;;;;;2.44;77.93;100404.14;1740512;81;21590;-57
2021/10/27 03:30:24;;;;;;;14.73;9.20;;;;;;;2.50;78.34;100398.52;1732514;80;21553;-58
2021/10/27 03:32:51;;;;;;;14.80;9.10;;;;;;;2.55;78.31;100398.55;1713489;82;22011;-57
2021/10/27 03:35:18;;;;;;;16.52;9.13;;;;;;;2.60;78.12;100394.23;1743702;81;21423;-57
2021/10/27 03:37:46;;;;;;;12.55;8.28;;;;;;;2.47;78.41;100395.94;1736618;80;21562;-57
2021/10/27 03:40:13;;;;;;;11.65;8.75;;;;;;;2.49;78.55;100392.05;1742801;81;21509;-57
2021/10/27 03:42:40;;;;;;;15.33;8.67;;;;;;;2.53;78.87;100386.00;1745722;80;21067;-57
2021/10/27 03:45:07;;;;;;;12.35;9.08;;;;;;;2.64;78.62;100385.58;1741851;81;21812;-57
2021/10/27 03:47:34;;;;;;;15.98;9.73;;;;;;;2.64;78.41;100388.62;1738610;80;21048;-58
2021/10/27 03:50:02;;;;;;;12.18;9.18;;;;;;;2.56;78.80;100381.23;1740377;80;21510;-57
2021/10/27 03:52:30;;;;;;;14.73;8.40;;;;;;;2.51;79.20;100377.34;1740833;81;21563;-57
2021/10/27 03:54:57;;;;;;;12.45;9.08;;;;;;;2.59;79.22;100382.55;1739728;80;21482;-58
2021/10/27 03:57:23;;;;;;;12.63;8.58;;;;;;;2.72;78.65;100378.66;1731622;81;21787;-59
2021/10/27 03:59:50;;;;;;;12.10;9.18;;;;;;;2.54;79.02;100386.41;1742600;81;21509;-57
2021/10/27 04:02:16;;;;;;;12.47;8.93;;;;;;;2.45;79.40;100380.79;1748186;81;21553;-57
2021/10/27 04:04:43;;;;;;;13.88;8.38;;;;;;;2.61;79.35;100387.30;1740327;80;21667;-57
2021/10/27 04:07:09;;;;;;;14.87;9.18;;;;;;;2.58;79.29;100386.88;1737681;80;21473;-58
2021/10/27 04:09:38;;;;;;;14.93;8.55;;;;;;;2.61;79.09;100379.52;1734732;80;21696;-58
2021/10/27 04:12:05;;;;;;;12.33;9.70;;;;;;;2.50;79.46;100379.05;1735177;81;21521;-58
2021/10/27 04:14:32;;;;;;;12.05;9.28;;;;;;;2.51;79.82;100378.20;1715803;81;21605;-58
2021/10/27 04:16:58;;;;;;;14.73;9.73;;;;;;;2.59;79.55;100378.20;1718434;81;21650;-58
2021/10/27 04:19:25;;;;;;;11.70;8.88;;;;;;;2.60;79.45;100381.66;1731723;81;21565;-58
2021/10/27 04:21:51;;;;;;;12.45;8.93;;;;;;;2.48;79.68;100372.98;1729055;80;21566;-58
2021/10/27 04:24:19;;;;;;;14.55;8.63;;;;;;;2.49;80.06;100378.63;1725014;81;21530;-58
2021/10/27 04:26:47;;;;;;;11.12;8.58;;;;;;;2.64;79.98;100380.39;1726002;81;21547;-58
2021/10/27 04:29:13;;;;;;;15.15;9.30;;;;;;;2.57;79.65;100375.19;1738997;81;21604;-58
2021/10/27 04:31:40;;;;;;;11.33;8.47;;;;;;;2.61;79.61;100372.58;1727439;81;21530;-58
2021/10/27 04:34:07;;;;;;;12.28;8.23;;;;;;;2.54;80.12;100373.43;1719104;82;22059;-59
2021/10/27 04:36:34;;;;;;;12.35;9.08;;;;;;;2.65;80.05;100367.82;1724666;81;21567;-58
2021/10/27 04:39:00;;;;;;;10.65;8.33;;;;;;;2.60;79.67;100379.06;1728224;80;21617;-58
2021/10/27 04:41:27;;;;;;;11.93;8.90;;;;;;;2.53;79.83;100381.66;1729287;81;21572;-58
2021/10/27 04:43:53;;;;;;;10.38;8.13;;;;;;;2.53;80.17;100378.20;1730270;81;21083;-58
2021/10/27 04:46:20;;;;;;;13.38;8.90;;;;;;;2.49;80.51;100376.47;1707992;81;21563;-58
2021/10/27 04:48:46;;;;;;;10.43;8.88;;;;;;;2.52;80.37;100377.76;1727643;81;21609;-58
2021/10/27 04:51:13;;;;;;;12.47;8.48;;;;;;;2.60;80.08;100383.85;1718550;80;21485;-58
2021/10/27 04:53:40;;;;;;;10.48;8.08;;;;;;;2.53;80.20;100390.75;1724011;80;21550;-58
2021/10/27 04:56:06;;;;;;;10.23;7.30;;;;;;;2.46;80.50;100398.52;1719010;82;21610;-59
2021/10/27 04:58:34;;;;;;;11.65;8.03;;;;;;;2.58;80.55;100393.37;1726051;81;21481;-58
2021/10/27 05:01:00;;;;;;;12.37;9.70;;;;;;;2.60;80.38;100391.64;1723711;80;21058;-58
2021/10/27 05:03:27;;;;;;;19.73;15.80;;;;;;;2.57;80.38;100385.57;1725214;81;21435;-58
2021/10/27 05:05:56;;;;;;;17.80;9.90;;;;;;;2.53;80.48;100390.75;1717408;81;21427;-58
2021/10/27 05:08:23;;;;;;;13.32;8.80;;;;;;;2.51;80.82;100385.13;1736097;81;21526;-58
2021/10/27 05:10:51;;;;;;;14.63;9.13;;;;;;;2.75;80.38;100388.61;1733495;80;21590;-56
2021/10/27 05:13:19;;;;;;;12.58;9.25;;;;;;;2.72;80.18;100392.94;1741562;80;21644;-59
2021/10/27 05:15:48;;;;;;;;;;;;;;;2.61;80.46;100411.53;1722312;81;21583;-59
2021/10/27 05:18:15;;;;;;;11.22;8.85;;;;;;;2.54;80.70;100399.39;1739161;81;20430;-59
2021/10/27 05:20:43;;;;;;;12.07;8.38;;;;;;;2.65;80.78;100409.80;1728292;81;21509;-60
2021/10/27 05:23:10;;;;;;;12.80;11.28;;;;;;;2.75;80.52;100399.00;1725810;80;21576;-60
2021/10/27 05:25:37;;;;;;;10.35;9.03;;;;;;;2.75;80.25;100406.37;1728854;81;21542;-60
2021/10/27 05:28:04;;;;;;;14.43;9.20;;;;;;;2.69;80.48;100411.13;1724616;81;21731;-64
2021/10/27 05:30:31;;;;;;;10.63;7.83;;;;;;;2.72;80.70;100412.41;1729528;82;21518;-57
2021/10/27 05:32:58;;;;;;;12.50;8.60;;;;;;;2.95;80.38;100413.31;1733494;81;21516;-57
2021/10/27 05:35:25;;;;;;;9.70;8.03;;;;;;;2.90;80.12;100414.59;1724362;81;21829;-57
2021/10/27 05:37:52;;;;;;;11.35;8.28;;;;;;;2.93;80.07;100411.56;1717615;81;21871;-56
2021/10/27 05:40:19;;;;;;;15.57;8.20;;;;;;;2.88;80.32;100425.00;1722770;81;21508;-56
2021/10/27 05:42:47;;;;;;;9.08;7.45;;;;;;;3.02;80.35;100415.91;1722006;81;21503;-56
2021/10/27 05:45:17;;;;;;;11.12;8.40;;;;;;;3.02;80.07;100422.41;1724122;81;21010;-57
2021/10/27 05:47:48;;;;;;;13.00;9.18;;;;;;;3.03;80.07;100409.86;1738315;81;21759;-57
2021/10/27 05:55:28;;;;;;;11.33;8.65;;;;;;;3.27;79.93;100419.36;1732443;81;21070;-57
2021/10/27 05:57:55;;;;;;;11.08;8.90;;;;;;;3.46;79.48;100416.75;1726247;81;21526;-58
2021/10/27 06:00:22;;;;;;;10.25;8.20;;;;;;;3.31;79.62;100407.23;1728303;81;21813;-58
2021/10/27 06:02:48;;;;;;;10.10;8.30;;;;;;;3.37;80.02;100409.85;1723803;81;21456;-59
2021/10/27 06:05:15;;;;;;;12.35;7.80;;;;;;;3.55;79.71;100409.38;1733376;81;21498;-59
2021/10/27 06:07:42;;;;;;;11.65;8.90;;;;;;;3.57;79.28;100407.64;1734552;81;20981;-58
2021/10/27 06:10:12;;;;;;;14.43;9.23;;;;;;;3.51;79.69;100417.62;1731408;81;21612;-60
2021/10/27 06:12:39;;;;;;;10.95;8.65;;;;;;;3.51;79.69;100417.62;1734153;81;22047;-59
2021/10/27 06:18:11;;;;;;;15.93;9.00;;;;;;;3.90;78.66;100418.41;1787837;78;23303;-59
2021/10/27 06:20:37;;;;;;;13.65;9.25;;;;;;;3.83;78.86;100416.69;1761081;79;21589;-59
2021/10/27 06:23:04;;;;;;;12.13;8.65;;;;;;;3.82;78.82;100423.59;1763968;79;21828;-59
2021/10/27 06:25:31;;;;;;;11.83;8.73;;;;;;;4.07;78.17;100419.65;1737333;80;20963;-58
2021/10/27 06:28:06;;;;;;;11.17;8.37;;;;;;;4.07;78.17;100419.65;1765808;80;21541;-58
2021/10/27 06:30:31;;;;;;;11.78;8.35;;;;;;;4.14;77.70;100421.77;1755692;79;21585;-58
2021/10/27 06:33:08;;;;;;;9.43;8.23;;;;;;;4.15;77.62;100422.22;1756568;80;21633;-58
2021/10/27 06:35:35;;;;;;;11.78;8.58;;;;;;;4.13;78.00;100438.28;1761544;80;22125;-58
2021/10/27 06:38:21;;;;;;;9.13;8.23;;;;;;;4.23;78.07;100437.35;1761292;80;21506;-58
2021/10/27 06:46:29;;;;;;;11.28;8.13;;;;;;;4.34;77.61;100434.71;1756447;79;21439;-57
2021/10/27 06:48:41;;;;;;;12.40;8.48;;;;;;;4.56;77.10;100436.33;1759010;80;22071;-56
2021/10/27 06:51:08;;;;;;;12.03;9.45;;;;;;;4.68;76.47;100449.72;1750289;79;21470;-56
2021/10/27 06:53:35;;;;;;;11.88;9.63;;;;;;;4.62;76.26;100440.64;1764527;80;21549;-56
2021/10/27 06:56:07;;;;;;;12.40;9.43;;;;;;;4.64;76.11;100441.05;1766302;79;21538;-56
2021/10/27 06:58:32;;;;;;;13.05;8.85;;;;;;;4.65;76.70;100441.49;1757609;79;21558;-57
2021/10/27 07:01:01;;;;;;;12.82;9.45;;;;;;;4.85;76.00;100430.92;1770627;79;21651;-56
2021/10/27 07:16:39;;;;;;;12.98;9.68;;;;;;;5.31;73.48;100398.41;1760097;79;21487;-61
2021/10/27 07:19:06;;;;;;;16.20;9.08;;;;;;;5.29;73.37;100394.95;1762118;80;21404;-58
2021/10/27 07:21:33;;;;;;;13.47;8.70;;;;;;;5.33;73.56;100390.16;1756211;79;21542;-58
2021/10/27 07:24:01;;;;;;;12.77;9.37;;;;;;;5.53;73.57;100399.52;1761228;79;21577;-59
2021/10/27 07:26:31;;;;;;;14.00;9.13;;;;;;;5.82;71.82;100396.17;1758282;80;21534;-59
2021/10/27 07:28:57;;;;;;;12.00;9.20;;;;;;;5.75;71.90;100397.11;1757438;79;21096;-58
2021/10/27 07:31:25;;;;;;;16.57;9.93;;;;;;;5.87;71.69;100399.16;1756158;79;21488;-58
2021/10/27 07:34:07;;;;;;;12.70;9.40;;;;;;;5.90;71.33;100396.08;1764306;79;21546;-57
2021/10/27 07:41:40;;;;;;;12.93;9.70;;;;;;;6.16;69.77;100411.46;1755309;79;21220;-58
2021/10/27 07:44:15;;;;;;;13.53;10.38;;;;;;;6.20;69.39;100409.23;1753463;80;21550;-59
2021/10/27 07:46:36;;;;;;;15.75;10.10;;;;;;;6.21;69.19;100399.64;1762364;80;21554;-58
2021/10/27 07:49:02;;;;;;;15.90;10.37;;;;;;;6.20;69.34;100403.15;1748302;79;21096;-58
2021/10/27 07:51:29;;;;;;;12.95;9.40;;;;;;;6.27;69.39;100400.86;1764308;80;21765;-57
2021/10/27 07:53:56;;;;;;;19.45;10.80;;;;;;;6.44;68.80;100398.02;1765921;80;21554;-59
2021/10/27 07:56:24;;;;;;;13.35;9.23;;;;;;;6.44;68.75;100390.18;1754261;80;21621;-59
2021/10/27 07:58:53;;;;;;;12.03;9.50;;;;;;;6.57;68.17;100394.38;1765339;79;21062;-59
2021/10/27 08:01:20;;;;;;;14.05;10.03;;;;;;;6.64;67.87;100395.14;1762798;79;21544;-57
2021/10/27 08:03:47;;;;;;;14.10;9.70;;;;;;;6.72;67.66;100390.64;1762849;80;22103;-58
2021/10/27 08:06:14;;;;;;;14.40;10.25;;;;;;;6.86;67.34;100398.75;1748846;80;21411;-60
2021/10/27 08:08:41;;;;;;;11.05;9.20;;;;;;;7.04;66.95;100403.66;1756333;80;20982;-58
2021/10/27 08:11:09;;;;;;;12.90;9.13;;;;;;;7.29;66.09;100392.37;1762300;80;21665;-58
2021/10/27 08:13:37;;;;;;;12.45;9.63;;;;;;;7.35;65.29;100389.63;1750822;80;21549;-59
2021/10/27 08:16:05;;;;;;;13.38;9.88;;;;;;;7.44;65.05;100387.73;1758787;79;21795;-58
2021/10/27 08:18:33;;;;;;;13.95;11.30;;;;;;;7.51;64.51;100380.20;1752084;80;21543;-59
2021/10/27 08:21:00;;;;;;;14.50;10.75;;;;;;;7.58;64.53;100377.88;1740519;80;21583;-57
2021/10/27 08:23:31;;;;;;;15.72;10.32;;;;;;;7.67;64.06;100379.02;1741967;80;21527;-58
2021/10/27 08:25:58;;;;;;;13.80;10.40;;;;;;;7.74;63.78;100370.16;1737730;80;21558;-60
2021/10/27 08:28:43;;;;;;;12.40;10.28;;;;;;;7.85;63.30;100359.45;1735794;79;21858;-60
2021/10/27 08:31:14;;;;;;;14.65;11.12;;;;;;;7.88;63.47;100367.72;1738533;80;21598;-58
2021/10/27 08:36:05;;;;;;;11.73;9.73;;;;;;;8.10;61.94;100378.59;1751216;79;21444;-59
2021/10/27 08:38:39;;;;;;;14.30;10.72;;;;;;;8.07;61.92;100381.30;1737663;80;21469;-59
2021/10/27 08:41:06;;;;;;;18.20;11.10;;;;;;;8.13;61.69;100377.23;1752068;80;23283;-59
2021/10/27 08:43:33;;;;;;;14.35;10.48;;;;;;;8.18;61.93;100377.55;1747185;80;22168;-65
2021/10/27 08:46:02;;;;;;;17.77;11.22;;;;;;;8.34;61.35;100376.79;1750007;80;21516;-62
2021/10/27 08:48:31;;;;;;;17.20;11.40;;;;;;;8.45;60.76;100375.25;1746596;80;20998;-59
2021/10/27 08:50:59;;;;;;;15.03;10.85;;;;;;;8.52;60.82;100382.54;1742376;80;21654;-59
2021/10/27 08:53:28;;;;;;;20.72;11.15;;;;;;;8.69;60.65;100391.33;1706574;80;21701;-59
2021/10/27 08:56:02;;;;;;;14.38;11.12;;;;;;;8.85;60.42;100388.73;1743289;80;21561;-59
2021/10/27 08:58:34;;;;;;;16.05;11.45;;;;;;;9.15;58.92;100383.64;1748677;80;21538;-58
2021/10/27 09:04:12;;;;;;;17.05;11.65;;;;;;;9.46;58.34;100377.62;1753529;80;21637;-59
2021/10/27 09:06:41;;;;;;;25.17;12.10;;;;;;;9.67;57.50;100386.23;1742572;79;21507;-57
2021/10/27 09:34:31;;;;;;;21.10;12.43;;;;;;;10.28;54.36;100374.44;1732052;81;22431;-59
2021/10/27 09:37:25;;;;;;;18.98;11.97;;;;;;;10.18;55.19;100374.28;1733969;80;21497;-60
2021/10/27 09:43:15;;;;;;;16.82;11.73;;;;;;;10.37;54.82;100361.95;1738592;81;21462;-59
2021/10/27 09:46:02;;;;;;;20.70;12.13;;;;;;;10.43;54.72;100362.60;1698695;82;21562;-60
2021/10/27 09:56:42;;;;;;;18.67;11.85;;;;;;;10.92;52.73;100362.81;1728049;82;21512;-59
2021/10/27 10:04:09;;;;;;;16.12;10.53;;;;;;;11.00;51.73;100354.67;1731476;82;21525;-61
2021/10/27 10:06:38;;;;;;;18.17;12.05;;;;;;;10.95;51.62;100348.26;1723097;82;21092;-58
2021/10/27 10:09:07;;;;;;;21.75;10.75;;;;;;;10.87;51.57;100352.45;1694635;83;21596;-57
2021/10/27 10:11:35;;;;;;;16.23;11.15;;;;;;;10.88;51.82;100354.63;1669789;84;21532;-58
2021/10/27 10:14:03;;;;;;;18.83;12.60;;;;;;;10.87;51.65;100352.45;1692200;83;21842;-59
2021/10/27 10:16:33;;;;;;;24.20;12.88;;;;;;;10.91;51.46;100352.75;1735378;81;21562;-58
2021/10/27 10:19:06;;;;;;;15.88;11.73;;;;;;;10.85;51.70;100359.54;1742489;80;21014;-59
2021/10/27 10:21:38;;;;;;;16.45;11.65;;;;;;;10.85;52.15;100350.34;1738252;80;21507;-59
2021/10/27 10:24:29;;;;;;;17.37;12.18;;;;;;;11.06;51.22;100352.70;1696968;80;21435;-59
2021/10/27 10:27:00;;;;;;;16.77;11.18;;;;;;;11.05;50.29;100343.54;1757287;80;21566;-60
2021/10/27 10:29:44;;;;;;;17.65;11.55;;;;;;;10.98;50.54;100344.66;1749236;80;21460;-59
2021/10/27 10:32:31;;;;;;;19.77;11.20;;;;;;;10.99;50.53;100348.55;1749337;80;21053;-60
2021/10/27 10:35:16;;;;;;;15.80;12.00;;;;;;;11.00;50.62;100346.77;1741586;80;21448;-60
2021/10/27 10:38:03;;;;;;;;;;;;;;;11.01;50.35;100345.41;1732384;80;21065;-61
2021/10/27 10:41:01;;;;;;;20.88;12.28;;;;;;;10.95;50.40;100340.83;1742366;80;22079;-59
2021/10/27 10:57:18;;;;;;;22.80;13.77;;;;;;;10.86;51.44;100346.78;1754226;80;21589;-59
2021/10/27 11:22:52;;;;;;;21.15;13.62;;;;;;;10.45;52.93;100354.67;1758713;79;22107;-58
2021/10/27 11:38:39;;;;;;;21.40;14.85;;;;;;;10.24;53.46;100349.59;1754473;79;20151;-59
2021/10/27 11:41:17;;;;;;;27.22;15.50;;;;;;;10.18;53.84;100348.01;1767248;79;21666;-59
2021/10/27 11:44:11;;;;;;;23.10;15.60;;;;;;;10.25;53.85;100351.33;1752421;80;21591;-60
2021/10/27 11:46:57;;;;;;;25.35;15.55;;;;;;;10.26;53.86;100349.09;1702528;82;21572;-60
2021/10/27 11:49:17;;;;;;;22.75;15.08;;;;;;;10.26;53.79;100346.00;1759849;80;22118;-59
2021/10/27 11:51:55;;;;;;;27.98;15.70;;;;;;;10.13;54.24;100351.22;1760509;80;21599;-59
2021/10/27 11:54:26;;;;;;;22.42;15.25;;;;;;;10.25;54.06;100346.92;1759051;79;21504;-59
2021/10/27 11:56:50;;;;;;;25.65;16.15;;;;;;;10.20;54.13;100346.66;1758097;80;21491;-59
2021/10/27 11:59:17;;;;;;;21.07;15.85;;;;;;;10.17;54.36;100347.62;1755377;79;21657;-60
2021/10/27 12:01:56;;;;;;;24.30;16.12;;;;;;;10.22;54.28;100351.41;1676516;84;21798;-58
2021/10/27 12:04:28;;;;;;;27.00;17.37;;;;;;;10.21;54.50;100350.98;1630584;85;21588;-58
2021/10/27 12:07:03;;;;;;;24.20;16.87;;;;;;;10.23;54.59;100343.48;1629391;86;22160;-59
2021/10/27 12:12:56;;;;;;;30.80;19.32;;;;;;;10.33;54.87;100351.52;1603752;87;21570;-58
2021/10/27 12:15:30;;;;;;;26.65;18.52;;;;;;;10.45;54.58;100351.61;1638264;86;21605;-59
2021/10/27 12:18:03;;;;;;;26.52;18.50;;;;;;;10.52;54.83;100349.17;1610735;87;21593;-58
2021/10/27 12:20:40;;;;;;;25.30;18.95;;;;;;;10.62;54.63;100345.80;1613488;86;21535;-59
2021/10/27 12:23:17;;;;;;;25.88;19.17;;;;;;;10.66;54.51;100343.50;1624392;86;21689;-59
2021/10/27 12:25:43;;;;;;;27.43;17.07;;;;;;;10.63;54.88;100343.58;1611618;85;21587;-59
2021/10/27 12:28:31;;;;;;;25.52;18.55;;;;;;;10.57;55.04;100355.62;1654680;84;22135;-58
2021/10/27 12:30:58;;;;;;;21.57;17.82;;;;;;;10.58;55.11;100346.80;1700366;83;21603;-59
2021/10/27 12:33:42;;;;;;;25.45;16.17;;;;;;;10.54;54.70;100351.76;1703844;82;21505;-60
2021/10/27 12:36:34;;;;;;;27.02;17.95;;;;;;;10.56;55.12;100355.66;1713467;82;21526;-61
2021/10/27 12:42:11;;;;;;;25.82;17.02;;;;;;;10.50;55.26;100350.98;1712427;82;21735;-60
2021/10/27 12:44:52;;;;;;;30.17;19.02;;;;;;;10.61;55.47;100361.18;1659386;84;21048;-60
2021/10/27 12:47:27;;;;;;;25.32;18.67;;;;;;;10.73;55.30;100357.29;1699419;82;21562;-60
2021/10/27 12:50:16;;;;;;;31.40;19.70;;;;;;;10.71;55.43;100361.75;1705893;82;21505;-61
2021/10/27 12:52:58;;;;;;;24.55;19.30;;;;;;;10.73;55.53;100363.02;1696218;82;21644;-60
2021/10/27 12:55:33;;;;;;;29.05;18.92;;;;;;;10.75;55.49;100363.36;1709079;82;21520;-59
2021/10/27 12:58:12;;;;;;;30.92;20.15;;;;;;;10.73;55.61;100369.13;1707639;82;21557;-59
2021/10/27 13:00:54;;;;;;;26.25;19.02;;;;;;;10.71;55.75;100367.86;1710318;82;21068;-60
2021/10/27 13:11:07;;;;;;;32.08;20.55;;;;;;;11.00;55.70;100383.18;1710265;82;21509;-60
2021/10/27 13:14:19;;;;;;;25.10;17.92;;;;;;;11.29;55.06;100380.88;1715770;82;21017;-62
2021/10/27 13:16:59;;;;;;;25.48;18.42;;;;;;;11.52;54.80;100385.80;1673760;82;21510;-62
2021/10/27 13:32:08;;;;;;;25.32;17.98;;;;;;;11.67;55.36;100397.11;1709260;82;21625;-62
2021/10/27 13:34:35;;;;;;;27.87;18.27;;;;;;;11.61;55.46;100396.48;1708060;81;21746;-63
2021/10/27 13:37:05;;;;;;;29.92;19.40;;;;;;;11.54;55.64;100402.87;1693546;82;21076;-63
2021/10/27 13:39:31;;;;;;;26.23;17.32;;;;;;;11.46;55.91;100398.73;1712929;82;21008;-63
2021/10/27 13:42:01;;;;;;;24.65;18.50;;;;;;;11.39;55.98;100394.58;1697958;82;21470;-64
2021/10/27 13:44:31;;;;;;;26.95;18.48;;;;;;;11.39;56.05;100404.26;1708024;82;21097;-63
2021/10/27 13:49:45;;;;;;;25.27;17.67;;;;;;;11.04;56.96;100412.42;1714416;81;21505;-60
2021/10/27 14:11:25;;;;;;;29.55;17.00;;;;;;;10.33;59.19;100438.72;1703637;82;21422;-60
2021/10/27 14:41:19;;;;;;;28.52;18.40;;;;;;;9.49;62.26;100462.41;1699266;82;21485;-62
2021/10/27 15:21:46;;;;;;;24.65;15.93;;;;;;;9.18;64.49;100504.73;1669145;84;21798;-59
2021/10/27 15:24:35;;;;;;;25.08;17.35;;;;;;;9.30;64.38;100501.80;1664822;83;21548;-58
2021/10/27 15:32:26;;;;;;;25.55;15.93;;;;;;;9.25;64.17;100511.54;1665864;83;21538;-59
2021/10/27 15:34:55;;;;;;;26.15;17.48;;;;;;;9.24;64.34;100510.69;1662726;83;21789;-59
2021/10/27 15:45:40;;;;;;;27.75;17.67;;;;;;;9.21;64.39;100512.52;1650193;85;21442;-58
2021/10/27 15:50:50;;;;;;;27.75;16.67;;;;;;;9.21;64.42;100524.32;1652079;85;21526;-59
2021/10/27 15:53:14;;;;;;;31.20;16.37;;;;;;;9.26;64.62;100517.22;1654338;85;21056;-59